createdAt,value
2023-02-11T00:01:20.019Z,15.64
2023-02-11T00:03:47.666Z,15.63
2023-02-11T00:06:15.197Z,15.62
2023-02-11T00:08:43.107Z,15.62
2023-02-11T00:11:17.676Z,15.58
2023-02-11T00:13:46.423Z,15.57
2023-02-11T00:16:16.579Z,15.57
2023-02-11T00:18:44.528Z,15.54
2023-02-11T00:21:25.952Z,15.55
2023-02-11T00:23:55.009Z,15.55
2023-02-11T00:26:28.124Z,15.52
2023-02-11T00:28:57.016Z,15.53
2023-02-11T00:31:25.300Z,15.53
2023-02-11T00:33:53.689Z,15.48
2023-02-11T00:36:26.383Z,15.48
2023-02-11T00:38:55.679Z,15.49
2023-02-11T00:41:23.555Z,15.47
2023-02-11T00:43:51.443Z,15.47
2023-02-11T00:46:19.135Z,15.44
2023-02-11T00:48:46.820Z,15.46
2023-02-11T00:51:14.360Z,15.44
2023-02-11T00:53:41.978Z,15.46
2023-02-11T00:56:09.602Z,15.44
2023-02-11T00:58:37.863Z,15.42
2023-02-11T01:01:05.680Z,15.42
2023-02-11T01:03:34.033Z,15.44
2023-02-11T01:06:01.440Z,15.44
2023-02-11T01:08:29.228Z,15.41
2023-02-11T01:11:00.928Z,15.40
2023-02-11T01:13:29.957Z,15.40
2023-02-11T01:15:57.949Z,15.40
2023-02-11T01:18:26.303Z,15.39
2023-02-11T01:20:54.378Z,15.39
2023-02-11T01:23:22.594Z,15.37
2023-02-11T01:25:50.487Z,15.36
2023-02-11T01:28:20.467Z,15.38
2023-02-11T01:30:48.445Z,15.39
2023-02-11T01:33:16.147Z,15.40
2023-02-11T01:35:44.476Z,15.39
2023-02-11T01:38:24.363Z,15.37
2023-02-11T01:41:00.509Z,15.37
2023-02-11T01:43:31.176Z,15.39
2023-02-11T01:46:26.388Z,15.38
2023-02-11T01:49:17.356Z,15.35
2023-02-11T01:51:53.108Z,15.36
2023-02-11T01:54:42.872Z,15.35
2023-02-11T01:57:25.281Z,15.33
2023-02-11T01:59:52.768Z,15.34
2023-02-11T02:02:23.795Z,15.34
2023-02-11T02:05:14.473Z,15.34
2023-02-11T02:07:50.933Z,15.33
2023-02-11T02:10:22.595Z,15.34
2023-02-11T02:12:49.929Z,15.31
2023-02-11T02:15:30.314Z,15.32
2023-02-11T02:18:15.088Z,15.31
2023-02-11T02:21:04.878Z,15.31
2023-02-11T02:23:51.763Z,15.31
2023-02-11T02:26:51.463Z,15.32
2023-02-11T02:29:46.604Z,15.32
2023-02-11T02:32:26.932Z,15.32
2023-02-11T02:35:10.470Z,15.34
2023-02-11T02:37:50.876Z,15.37
2023-02-11T02:40:31.397Z,15.34
2023-02-11T02:43:01.275Z,15.35
2023-02-11T02:45:28.672Z,15.35
2023-02-11T02:47:56.701Z,15.35
2023-02-11T02:50:33.440Z,15.35
2023-02-11T02:53:31.673Z,15.35
2023-02-11T02:56:45.404Z,15.36
2023-02-11T02:59:33.210Z,15.35
2023-02-11T03:02:12.379Z,15.35
2023-02-11T03:05:02.577Z,15.35
2023-02-11T03:07:41.329Z,15.35
2023-02-11T03:10:19.462Z,15.34
2023-02-11T03:12:48.557Z,15.35
2023-02-11T03:15:19.399Z,15.33
2023-02-11T03:17:50.238Z,15.34
2023-02-11T03:20:20.253Z,15.33
2023-02-11T03:23:07.604Z,15.34
2023-02-11T03:25:40.350Z,15.33
2023-02-11T03:28:15.852Z,15.33
2023-02-11T03:30:56.091Z,15.35
2023-02-11T03:33:31.490Z,15.34
2023-02-11T03:36:08.714Z,15.33
2023-02-11T03:38:47.209Z,15.32
2023-02-11T03:41:17.786Z,15.33
2023-02-11T03:43:50.344Z,15.32
2023-02-11T03:46:21.246Z,15.33
2023-02-11T03:48:52.260Z,15.34
2023-02-11T03:51:22.074Z,15.31
2023-02-11T03:53:52.959Z,15.32
2023-02-11T03:56:23.363Z,15.34
2023-02-11T03:58:50.916Z,15.31
2023-02-11T04:01:18.563Z,15.31
2023-02-11T04:03:45.880Z,15.32
2023-02-11T04:06:13.393Z,15.30
2023-02-11T04:08:41.066Z,15.32
2023-02-11T04:11:08.584Z,15.30
2023-02-11T04:13:35.837Z,15.30
2023-02-11T04:16:03.676Z,15.30
2023-02-11T04:18:30.876Z,15.30
2023-02-11T04:20:58.323Z,15.29
2023-02-11T04:23:25.615Z,15.29
2023-02-11T04:25:53.303Z,15.29
2023-02-11T04:28:20.675Z,15.29
2023-02-11T04:30:50.567Z,15.29
2023-02-11T04:33:18.107Z,15.29
2023-02-11T04:35:45.979Z,15.29
2023-02-11T04:38:13.739Z,15.30
2023-02-11T04:40:41.283Z,15.28
2023-02-11T04:43:08.667Z,15.29
2023-02-11T04:45:36.268Z,15.26
2023-02-11T04:48:03.999Z,15.27
2023-02-11T04:50:31.530Z,15.27
2023-02-11T04:52:58.789Z,15.28
2023-02-11T04:55:26.375Z,15.27
2023-02-11T04:57:55.206Z,15.27
2023-02-11T05:00:22.838Z,15.25
2023-02-11T05:02:50.067Z,15.28
2023-02-11T05:05:17.610Z,15.26
2023-02-11T05:07:44.836Z,15.25
2023-02-11T05:10:12.314Z,15.26
2023-02-11T05:12:39.509Z,15.27
2023-02-11T05:15:07.362Z,15.27
2023-02-11T05:17:34.551Z,15.26
2023-02-11T05:20:02.186Z,15.26
2023-02-11T05:22:29.379Z,15.25
2023-02-11T05:24:57.004Z,15.25
2023-02-11T05:27:24.281Z,15.25
2023-02-11T05:29:51.738Z,15.23
2023-02-11T05:32:18.917Z,15.25
2023-02-11T05:34:46.394Z,15.22
2023-02-11T05:37:13.794Z,15.23
2023-02-11T05:39:41.354Z,15.23
2023-02-11T05:42:08.599Z,15.21
2023-02-11T05:44:36.156Z,15.21
2023-02-11T05:47:03.885Z,15.21
2023-02-11T05:49:31.341Z,15.20
2023-02-11T05:51:58.559Z,15.23
2023-02-11T05:54:26.223Z,15.21
2023-02-11T05:56:53.814Z,15.22
2023-02-11T05:59:21.246Z,15.20
2023-02-11T06:01:48.480Z,15.22
2023-02-11T06:04:15.963Z,15.20
2023-02-11T06:06:43.310Z,15.20
2023-02-11T06:09:11.777Z,15.21
2023-02-11T06:11:39.079Z,15.20
2023-02-11T06:14:06.714Z,15.19
2023-02-11T06:16:34.002Z,15.20
2023-02-11T06:19:01.514Z,15.21
2023-02-11T06:21:42.402Z,15.20
2023-02-11T06:24:12.691Z,15.20
2023-02-11T06:26:39.921Z,15.19
2023-02-11T06:29:07.824Z,15.19
2023-02-11T06:31:37.745Z,15.20
2023-02-11T06:34:05.505Z,15.18
2023-02-11T06:36:32.727Z,15.18
2023-02-11T06:39:00.284Z,15.17
2023-02-11T06:41:28.177Z,15.19
2023-02-11T06:43:55.661Z,15.18
2023-02-11T06:46:22.974Z,15.20
2023-02-11T06:48:50.563Z,15.18
2023-02-11T06:51:17.840Z,15.18
2023-02-11T06:53:46.864Z,15.18
2023-02-11T06:56:19.746Z,15.20
2023-02-11T06:58:48.326Z,15.22
2023-02-11T07:01:16.612Z,15.21
2023-02-11T07:03:45.033Z,15.21
2023-02-11T07:06:18.796Z,15.21
2023-02-11T07:08:46.888Z,15.25
2023-02-11T07:11:17.945Z,15.21
2023-02-11T07:13:45.553Z,15.23
2023-02-11T07:16:15.580Z,15.22
2023-02-11T07:18:43.456Z,15.23
2023-02-11T07:21:16.569Z,15.23
2023-02-11T07:23:44.349Z,15.23
2023-02-11T07:26:15.003Z,15.25
2023-02-11T07:28:43.584Z,15.23
2023-02-11T07:31:13.491Z,15.23
2023-02-11T07:33:41.633Z,15.25
2023-02-11T07:36:10.577Z,15.25
2023-02-11T07:38:38.871Z,15.26
2023-02-11T07:41:09.334Z,15.27
2023-02-11T07:43:37.753Z,15.28
2023-02-11T07:46:11.417Z,15.28
2023-02-11T07:48:38.987Z,15.30
2023-02-11T07:51:12.654Z,15.24
2023-02-11T07:53:40.598Z,15.20
2023-02-11T07:56:10.206Z,15.17
2023-02-11T07:58:38.083Z,15.18
2023-02-11T08:01:08.189Z,15.19
2023-02-11T08:03:36.903Z,15.20
2023-02-11T08:06:09.628Z,15.21
2023-02-11T08:08:37.305Z,15.22
2023-02-11T08:11:14.076Z,15.23
2023-02-11T08:13:42.486Z,15.26
2023-02-11T08:16:17.011Z,15.23
2023-02-11T08:18:44.572Z,15.25
2023-02-11T08:21:12.657Z,15.22
2023-02-11T08:23:41.584Z,15.21
2023-02-11T08:26:12.433Z,15.20
2023-02-11T08:28:41.512Z,15.19
2023-02-11T08:31:11.823Z,15.20
2023-02-11T08:33:40.918Z,15.20
2023-02-11T08:36:09.960Z,15.22
2023-02-11T08:38:37.975Z,15.21
2023-02-11T08:41:06.290Z,15.23
2023-02-11T08:43:34.420Z,15.27
2023-02-11T08:46:02.508Z,15.28
2023-02-11T08:48:30.216Z,15.32
2023-02-11T08:50:57.606Z,15.32
2023-02-11T08:53:25.244Z,15.36
2023-02-11T08:55:54.388Z,15.37
2023-02-11T08:58:22.616Z,15.40
2023-02-11T09:00:50.654Z,15.44
2023-02-11T09:03:18.569Z,15.44
2023-02-11T09:05:47.997Z,15.49
2023-02-11T09:08:16.727Z,15.54
2023-02-11T09:10:44.128Z,15.54
2023-02-11T09:13:12.126Z,15.57
2023-02-11T09:15:40.004Z,15.61
2023-02-11T09:18:07.791Z,15.66
2023-02-11T09:20:35.020Z,15.66
2023-02-11T09:23:02.617Z,15.68
2023-02-11T09:25:30.597Z,15.69
2023-02-11T09:27:58.273Z,15.72
2023-02-11T09:30:25.798Z,15.74
2023-02-11T09:32:53.334Z,15.75
2023-02-11T09:35:20.556Z,15.76
2023-02-11T09:37:48.083Z,15.81
2023-02-11T09:40:16.788Z,15.81
2023-02-11T09:43:01.769Z,15.84
2023-02-11T09:45:31.368Z,15.87
2023-02-11T09:48:06.268Z,15.86
2023-02-11T09:50:43.401Z,15.90
2023-02-11T09:53:29.539Z,15.92
2023-02-11T09:56:02.068Z,15.93
2023-02-11T09:58:35.965Z,15.96
2023-02-11T10:01:24.591Z,15.94
2023-02-11T10:04:13.975Z,15.98
2023-02-11T10:06:43.299Z,15.99
2023-02-11T10:09:48.521Z,15.98
2023-02-11T10:12:33.920Z,16.01
2023-02-11T10:15:08.416Z,16.02
2023-02-11T10:17:38.498Z,16.03
2023-02-11T10:20:30.932Z,16.02
2023-02-11T10:23:01.276Z,16.05
2023-02-11T10:25:38.804Z,16.07
2023-02-11T10:28:18.394Z,16.08
2023-02-11T10:30:55.364Z,16.09
2023-02-11T10:33:34.300Z,16.10
2023-02-11T10:36:03.230Z,16.13
2023-02-11T10:38:30.755Z,16.14
2023-02-11T10:40:58.351Z,16.14
2023-02-11T10:43:28.867Z,16.17
2023-02-11T10:45:57.734Z,16.17
2023-02-11T10:48:53.662Z,16.17
2023-02-11T10:51:25.572Z,16.19
2023-02-11T10:54:05.288Z,16.20
2023-02-11T10:56:36.268Z,16.22
2023-02-11T10:59:29.278Z,16.24
2023-02-11T11:02:00.944Z,16.23
2023-02-11T11:04:32.100Z,16.25
2023-02-11T11:07:22.606Z,16.22
2023-02-11T11:10:25.218Z,16.25
2023-02-11T11:12:52.732Z,16.25
2023-02-11T11:15:31.558Z,16.24
2023-02-11T11:18:28.644Z,16.20
2023-02-11T11:20:59.777Z,16.19
2023-02-11T11:23:29.795Z,16.19
2023-02-11T11:26:04.444Z,16.19
2023-02-11T11:28:39.204Z,16.22
2023-02-11T11:31:32.669Z,16.23
2023-02-11T11:34:18.892Z,16.21
2023-02-11T11:36:47.985Z,16.20
2023-02-11T11:39:30.827Z,16.18
2023-02-11T11:41:59.653Z,16.20
2023-02-11T11:44:31.011Z,16.17
2023-02-11T11:47:21.890Z,16.16
2023-02-11T11:50:00.426Z,16.16
2023-02-11T11:52:42.851Z,16.16
2023-02-11T11:55:19.145Z,16.14
2023-02-11T11:57:46.658Z,16.16
2023-02-11T12:00:20.883Z,16.15
2023-02-11T12:02:54.174Z,16.12
2023-02-11T12:05:35.560Z,16.10
2023-02-11T12:08:29.048Z,16.10
2023-02-11T12:11:26.508Z,16.08
2023-02-11T12:14:48.387Z,16.07
2023-02-11T12:17:34.492Z,16.07
2023-02-11T12:20:39.783Z,16.04
2023-02-11T12:23:25.697Z,16.04
2023-02-11T12:26:13.303Z,16.01
2023-02-11T12:28:54.157Z,16.02
2023-02-11T12:31:44.174Z,16.00
2023-02-11T12:34:54.161Z,15.98
2023-02-11T12:37:33.318Z,15.98
2023-02-11T12:40:25.672Z,15.93
2023-02-11T12:43:24.322Z,15.94
2023-02-11T12:46:13.534Z,15.93
2023-02-11T12:49:02.624Z,15.93
2023-02-11T12:52:02.271Z,15.93
2023-02-11T12:54:40.169Z,15.93
2023-02-11T12:57:17.371Z,15.94
2023-02-11T13:00:04.886Z,15.94
2023-02-11T13:02:46.540Z,15.93
2023-02-11T13:05:59.785Z,15.91
2023-02-11T13:08:48.369Z,15.91
2023-02-11T13:11:21.412Z,15.90
2023-02-11T13:13:55.927Z,15.89
2023-02-11T13:16:35.290Z,15.92
2023-02-11T13:19:08.533Z,15.88
2023-02-11T13:21:52.782Z,15.88
2023-02-11T13:24:57.801Z,15.87
2023-02-11T13:27:32.421Z,15.87
2023-02-11T13:30:29.711Z,15.86
2023-02-11T13:32:57.064Z,15.84
2023-02-11T13:35:32.108Z,15.84
2023-02-11T13:38:05.633Z,15.85
2023-02-11T13:40:37.424Z,15.84
2023-02-11T13:43:06.773Z,15.83
2023-02-11T13:45:41.788Z,15.83
2023-02-11T13:48:36.772Z,15.85
2023-02-11T13:51:04.243Z,15.84
2023-02-11T13:53:46.072Z,15.82
2023-02-11T13:56:29.292Z,15.84
2023-02-11T13:59:01.989Z,15.83
2023-02-11T14:02:24.670Z,15.82
2023-02-11T14:05:24.429Z,15.78
2023-02-11T14:08:28.546Z,15.79
2023-02-11T14:10:59.655Z,15.77
2023-02-11T14:13:27.728Z,15.78
2023-02-11T14:16:08.301Z,15.78
2023-02-11T14:18:57.252Z,15.77
2023-02-11T14:21:30.424Z,15.80
2023-02-11T14:24:10.751Z,15.81
2023-02-11T14:26:52.378Z,15.80
2023-02-11T14:29:44.933Z,15.87
2023-02-11T14:32:30.616Z,15.77
2023-02-11T14:35:15.702Z,15.68
2023-02-11T14:37:55.663Z,15.60
2023-02-11T14:40:40.463Z,15.52
2023-02-11T14:43:19.701Z,15.47
2023-02-11T14:45:53.256Z,15.40
2023-02-11T14:48:27.157Z,15.36
2023-02-11T14:51:10.493Z,15.32
2023-02-11T14:53:43.811Z,15.31
2023-02-11T14:56:26.282Z,15.37
2023-02-11T14:58:54.874Z,15.51
2023-02-11T15:01:37.543Z,15.62
2023-02-11T15:04:06.961Z,15.71
2023-02-11T15:06:42.445Z,15.74
2023-02-11T15:09:29.392Z,15.79
2023-02-11T15:11:58.043Z,15.87
2023-02-11T15:14:28.984Z,15.91
2023-02-11T15:17:03.247Z,15.92
2023-02-11T15:19:36.794Z,15.96
2023-02-11T15:22:07.028Z,15.99
2023-02-11T15:24:35.570Z,15.98
2023-02-11T15:27:18.508Z,16.01
2023-02-11T15:29:49.426Z,16.04
2023-02-11T15:32:19.793Z,16.04
2023-02-11T15:34:50.062Z,16.03
2023-02-11T15:37:26.440Z,16.05
2023-02-11T15:39:54.743Z,16.08
2023-02-11T15:42:27.773Z,16.09
2023-02-11T15:45:13.821Z,16.09
2023-02-11T15:47:49.034Z,16.11
2023-02-11T15:50:20.467Z,16.11
2023-02-11T15:52:48.683Z,16.12
2023-02-11T15:55:16.203Z,16.13
2023-02-11T15:57:45.783Z,16.14
2023-02-11T16:00:20.102Z,16.14
2023-02-11T16:02:48.702Z,16.10
2023-02-11T16:05:33.942Z,16.03
2023-02-11T16:08:12.523Z,15.96
2023-02-11T16:10:39.490Z,15.99
2023-02-11T16:13:07.016Z,16.02
2023-02-11T16:15:34.062Z,16.03
2023-02-11T16:18:02.698Z,16.03
2023-02-11T16:20:30.131Z,16.04
2023-02-11T16:22:57.610Z,16.06
2023-02-11T16:25:25.756Z,16.08
2023-02-11T16:27:53.628Z,16.09
2023-02-11T16:30:27.138Z,16.10
2023-02-11T16:32:55.357Z,16.14
2023-02-11T16:35:22.425Z,16.12
2023-02-11T16:37:49.733Z,16.12
2023-02-11T16:40:16.838Z,16.11
2023-02-11T16:42:44.285Z,16.09
2023-02-11T16:45:12.187Z,16.07
2023-02-11T16:47:41.538Z,16.06
2023-02-11T16:50:19.271Z,16.09
2023-02-11T16:52:47.193Z,16.08
2023-02-11T16:55:15.299Z,16.08
2023-02-11T16:57:43.341Z,16.07
2023-02-11T17:00:11.180Z,16.07
2023-02-11T17:02:38.915Z,16.04
2023-02-11T17:05:07.325Z,16.06
2023-02-11T17:07:35.650Z,16.04
2023-02-11T17:10:03.959Z,16.02
2023-02-11T17:12:31.233Z,16.02
2023-02-11T17:14:58.206Z,16.04
2023-02-11T17:17:26.101Z,16.02
2023-02-11T17:19:53.087Z,16.03
2023-02-11T17:22:20.354Z,16.02
2023-02-11T17:24:47.336Z,16.02
2023-02-11T17:27:15.356Z,16.01
2023-02-11T17:29:42.627Z,16.03
2023-02-11T17:32:09.953Z,16.02
2023-02-11T17:34:37.048Z,16.02
2023-02-11T17:37:09.006Z,16.01
2023-02-11T17:39:36.788Z,16.02
2023-02-11T17:42:05.933Z,16.01
2023-02-11T17:44:33.329Z,16.00
2023-02-11T17:47:00.596Z,15.99
2023-02-11T17:49:27.702Z,15.99
2023-02-11T17:51:55.112Z,15.99
2023-02-11T17:54:22.249Z,16.00
2023-02-11T17:56:50.791Z,16.01
2023-02-11T17:59:18.045Z,16.00
2023-02-11T18:01:45.416Z,16.04
2023-02-11T18:04:13.675Z,16.03
2023-02-11T18:06:41.047Z,16.00
2023-02-11T18:09:08.076Z,16.01
2023-02-11T18:11:36.979Z,16.02
2023-02-11T18:14:04.799Z,16.01
2023-02-11T18:16:34.950Z,16.00
2023-02-11T18:19:02.380Z,16.00
2023-02-11T18:21:29.781Z,16.00
2023-02-11T18:23:57.960Z,16.00
2023-02-11T18:26:28.044Z,15.99
2023-02-11T18:28:57.547Z,16.01
2023-02-11T18:31:25.310Z,15.99
2023-02-11T18:33:53.182Z,15.99
2023-02-11T18:36:20.974Z,15.99
2023-02-11T18:38:48.365Z,16.00
2023-02-11T18:41:15.848Z,16.02
2023-02-11T18:43:43.031Z,15.99
2023-02-11T18:46:11.601Z,15.98
2023-02-11T18:48:38.931Z,15.99
2023-02-11T18:51:10.055Z,16.00
2023-02-11T18:53:37.140Z,16.01
2023-02-11T18:56:08.892Z,16.00
2023-02-11T18:58:37.556Z,15.99
2023-02-11T19:01:12.461Z,16.01
2023-02-11T19:03:39.462Z,16.00
2023-02-11T19:06:06.958Z,15.99
2023-02-11T19:08:35.132Z,15.99
2023-02-11T19:11:04.389Z,15.99
2023-02-11T19:13:31.398Z,15.98
2023-02-11T19:15:58.986Z,15.98
2023-02-11T19:18:26.456Z,16.00
2023-02-11T19:20:53.713Z,15.99
2023-02-11T19:23:20.710Z,15.97
2023-02-11T19:25:48.336Z,15.98
2023-02-11T19:28:15.750Z,15.99
2023-02-11T19:30:43.256Z,15.98
2023-02-11T19:33:10.570Z,15.99
2023-02-11T19:35:38.136Z,15.99
2023-02-11T19:38:05.619Z,15.99
2023-02-11T19:40:32.923Z,15.99
2023-02-11T19:43:00.254Z,15.97
2023-02-11T19:45:27.660Z,15.95
2023-02-11T19:47:55.544Z,15.94
2023-02-11T19:50:23.089Z,15.95
2023-02-11T19:52:50.057Z,15.96
2023-02-11T19:55:17.397Z,15.97
2023-02-11T19:57:45.326Z,15.95
2023-02-11T20:00:12.909Z,15.93
2023-02-11T20:02:40.508Z,15.94
2023-02-11T20:05:07.998Z,15.95
2023-02-11T20:07:35.190Z,15.97
2023-02-11T20:10:02.489Z,15.95
2023-02-11T20:12:29.511Z,15.95
2023-02-11T20:14:56.920Z,15.93
2023-02-11T20:17:23.938Z,15.95
2023-02-11T20:19:51.383Z,15.95
2023-02-11T20:22:18.426Z,15.94
2023-02-11T20:24:45.809Z,15.95
2023-02-11T20:27:13.111Z,15.94
2023-02-11T20:29:40.584Z,15.93
2023-02-11T20:32:08.393Z,15.94
2023-02-11T20:34:35.775Z,15.94
2023-02-11T20:37:04.969Z,15.95
2023-02-11T20:39:32.304Z,15.93
2023-02-11T20:41:59.380Z,15.94
2023-02-11T20:44:26.737Z,15.92
2023-02-11T20:46:54.203Z,15.94
2023-02-11T20:49:23.178Z,15.93
2023-02-11T20:51:52.024Z,15.92
2023-02-11T20:54:20.122Z,15.90
2023-02-11T20:56:48.360Z,15.92
2023-02-11T20:59:16.812Z,15.91
2023-02-11T21:01:45.922Z,15.91
2023-02-11T21:04:15.230Z,15.93
2023-02-11T21:06:47.241Z,15.91
2023-02-11T21:09:16.291Z,15.92
2023-02-11T21:11:44.456Z,15.92
2023-02-11T21:14:12.299Z,15.91
2023-02-11T21:16:39.812Z,15.91
2023-02-11T21:19:08.546Z,15.92
2023-02-11T21:21:36.737Z,15.91
2023-02-11T21:24:04.575Z,15.90
2023-02-11T21:26:31.838Z,15.91
2023-02-11T21:28:59.590Z,15.89
2023-02-11T21:31:30.490Z,15.89
2023-02-11T21:33:59.406Z,15.87
2023-02-11T21:36:27.532Z,15.89
2023-02-11T21:38:54.816Z,15.86
2023-02-11T21:41:22.508Z,15.86
2023-02-11T21:43:50.423Z,15.89
2023-02-11T21:46:18.060Z,15.88
2023-02-11T21:48:45.540Z,15.93
2023-02-11T21:51:17.245Z,15.99
2023-02-11T21:53:44.519Z,15.97
2023-02-11T21:56:15.661Z,15.95
2023-02-11T21:58:43.457Z,15.95
2023-02-11T22:01:11.917Z,15.91
2023-02-11T22:03:39.475Z,15.89
2023-02-11T22:06:10.580Z,15.86
2023-02-11T22:08:38.619Z,15.87
2023-02-11T22:11:06.720Z,15.86
2023-02-11T22:13:34.552Z,15.84
2023-02-11T22:16:02.527Z,15.84
2023-02-11T22:18:32.639Z,15.82
2023-02-11T22:21:04.355Z,15.81
2023-02-11T22:23:31.827Z,15.82
2023-02-11T22:26:02.624Z,15.81
2023-02-11T22:28:30.209Z,15.80
2023-02-11T22:30:57.808Z,15.77
2023-02-11T22:33:25.575Z,15.78
2023-02-11T22:36:02.521Z,15.78
2023-02-11T22:38:31.017Z,15.78
2023-02-11T22:40:58.601Z,15.78
2023-02-11T22:43:27.157Z,15.75
2023-02-11T22:45:56.467Z,15.76
2023-02-11T22:48:23.976Z,15.74
2023-02-11T22:50:51.120Z,15.77
2023-02-11T22:53:18.416Z,15.75
2023-02-11T22:55:46.654Z,15.74
2023-02-11T22:58:13.950Z,15.75
2023-02-11T23:00:41.248Z,15.73
2023-02-11T23:03:08.695Z,15.74
2023-02-11T23:05:42.299Z,15.72
2023-02-11T23:08:10.267Z,15.72
2023-02-11T23:10:38.166Z,15.71
2023-02-11T23:13:06.001Z,15.73
2023-02-11T23:15:33.095Z,15.72
2023-02-11T23:18:00.538Z,15.70
2023-02-11T23:20:27.575Z,15.70
2023-02-11T23:22:54.863Z,15.71
2023-02-11T23:25:21.866Z,15.70
2023-02-11T23:27:49.228Z,15.69
2023-02-11T23:30:17.337Z,15.68
2023-02-11T23:32:44.688Z,15.69
2023-02-11T23:35:12.940Z,15.69
2023-02-11T23:37:40.248Z,15.70
2023-02-11T23:40:07.601Z,15.68
2023-02-11T23:42:34.946Z,15.67
2023-02-11T23:45:01.910Z,15.66
2023-02-11T23:47:29.172Z,15.66
2023-02-11T23:49:58.695Z,15.67
2023-02-11T23:52:26.958Z,15.66
2023-02-11T23:54:54.404Z,15.66
2023-02-11T23:57:21.856Z,15.64
2023-02-11T23:59:49.785Z,15.66
